Dame Des Tropiques — FQJE — position and weather

sailwx.info

Track history (hours):
 
Tides and Currents Weather Stations Pressure Air Temp Water Temp Dewpoint Dewpoint Depression Visibility Wind Speed Wind Dir Waves Ship Positions

Dame Des Tropiques

Last reported at 2014-Sep-14 13:09 UTC. Time now 2014-Sep-15 09:30 UTC.
Position N 43°30' E 006°59'.

Length 28 m.

Type: Sailing vessel. MMSI: 347002100.

Date/timePositionNaut miles runAvg speedWind from/ knotsBaromVisibWave heightAir tempDewpointWater temp
2014-Sep-14 13:09N 43°30' E 006°59'3 0.4
2014-Sep-14 05:04N 43°32' E 007°01'0 0.0
2014-Sep-14 04:10N 43°32' E 007°01'0 0.0
2014-Sep-14 03:16N 43°32' E 007°01'0 0.0
2014-Sep-13 21:16N 43°32' E 007°01'0 0.0
2014-Sep-13 18:04N 43°32' E 007°01'0 0.0
2014-Sep-13 16:22N 43°32' E 007°01'0 0.0
2014-Sep-13 15:22N 43°32' E 007°01'3 0.6
2014-Sep-13 10:31N 43°30' E 007°03'4 4.1
2014-Sep-13 09:30N 43°34' E 007°05'0 0.3
2014-Sep-13 08:33N 43°34' E 007°05'0 0.2
2014-Sep-13 07:33N 43°34' E 007°05'3 3.0
2014-Sep-13 06:30N 43°31' E 007°02'1 0.1
2014-Sep-12 22:11N 43°32' E 007°02'0 0.0
2014-Sep-12 18:28N 43°32' E 007°02'0 0.0
2014-Sep-12 17:23N 43°32' E 007°02'0 0.0
2014-Sep-12 16:23N 43°32' E 007°02'0 0.0
2014-Sep-12 09:29N 43°32' E 007°02'0 0.0
2014-Sep-12 08:23N 43°32' E 007°02'0 0.0
2014-Sep-12 02:23N 43°32' E 007°02'0 0.0
2014-Sep-11 20:29N 43°32' E 007°02'0 0.0
2014-Sep-11 18:29N 43°32' E 007°02'0 0.0
2014-Sep-11 17:11N 43°32' E 007°02'0 0.0
2014-Sep-11 08:17N 43°32' E 007°02'0 0.0
2014-Sep-10 18:29N 43°32' E 007°02'0 0.0
2014-Sep-10 17:23N 43°32' E 007°02'0 0.0
2014-Sep-10 16:29N 43°32' E 007°02'0 0.0
2014-Sep-10 15:05N 43°32' E 007°02'0 0.0
2014-Sep-10 08:17N 43°32' E 007°02'0 0.0
2014-Sep-09 14:26N 43°32' E 007°02'0 0.0
2014-Sep-09 06:32N 43°32' E 007°02'0 0.0
2014-Sep-09 01:32N 43°32' E 007°02'0 0.0
2014-Sep-09 00:20N 43°32' E 007°02'0 0.0
2014-Sep-08 20:32N 43°32' E 007°02'0 0.0
2014-Sep-08 19:32N 43°32' E 007°02'0 0.0
2014-Sep-08 18:20N 43°32' E 007°02'0 0.0
2014-Sep-08 17:32N 43°32' E 007°02'0 0.0
2014-Sep-08 16:26N 43°32' E 007°02'0 0.0
2014-Sep-08 15:26N 43°32' E 007°02'0 0.0
2014-Sep-08 14:20N 43°32' E 007°02'0 0.0
2014-Sep-08 13:26N 43°32' E 007°02'0 0.0
2014-Sep-08 11:32N 43°32' E 007°02'  
Track history (hours):
 
Tides and Currents Weather Stations Pressure Air Temp Water Temp Dewpoint Dewpoint Depression Visibility Wind Speed Wind Dir Waves Ship Positions

Dame Des Tropiques

Last reported at 2014-Sep-14 13:09 UTC. Time now 2014-Sep-15 09:30 UTC.
Position N 43°30' E 006°59'.

Length 28 m.

Type: Sailing vessel. MMSI: 347002100.

Date/timePositionNaut miles runAvg speedWind from/ knotsBaromVisibWave heightAir tempDewpointWater temp
2014-Sep-14 13:09N 43°30' E 006°59'3 0.4
2014-Sep-14 05:04N 43°32' E 007°01'0 0.0
2014-Sep-14 04:10N 43°32' E 007°01'0 0.0
2014-Sep-14 03:16N 43°32' E 007°01'0 0.0
2014-Sep-13 21:16N 43°32' E 007°01'0 0.0
2014-Sep-13 18:04N 43°32' E 007°01'0 0.0
2014-Sep-13 16:22N 43°32' E 007°01'0 0.0
2014-Sep-13 15:22N 43°32' E 007°01'3 0.6
2014-Sep-13 10:31N 43°30' E 007°03'4 4.1
2014-Sep-13 09:30N 43°34' E 007°05'0 0.3
2014-Sep-13 08:33N 43°34' E 007°05'0 0.2
2014-Sep-13 07:33N 43°34' E 007°05'3 3.0
2014-Sep-13 06:30N 43°31' E 007°02'1 0.1
2014-Sep-12 22:11N 43°32' E 007°02'0 0.0
2014-Sep-12 18:28N 43°32' E 007°02'0 0.0
2014-Sep-12 17:23N 43°32' E 007°02'0 0.0
2014-Sep-12 16:23N 43°32' E 007°02'0 0.0
2014-Sep-12 09:29N 43°32' E 007°02'0 0.0
2014-Sep-12 08:23N 43°32' E 007°02'0 0.0
2014-Sep-12 02:23N 43°32' E 007°02'0 0.0
2014-Sep-11 20:29N 43°32' E 007°02'0 0.0
2014-Sep-11 18:29N 43°32' E 007°02'0 0.0
2014-Sep-11 17:11N 43°32' E 007°02'0 0.0
2014-Sep-11 08:17N 43°32' E 007°02'0 0.0
2014-Sep-10 18:29N 43°32' E 007°02'0 0.0
2014-Sep-10 17:23N 43°32' E 007°02'0 0.0
2014-Sep-10 16:29N 43°32' E 007°02'0 0.0
2014-Sep-10 15:05N 43°32' E 007°02'0 0.0
2014-Sep-10 08:17N 43°32' E 007°02'0 0.0
2014-Sep-09 14:26N 43°32' E 007°02'0 0.0
2014-Sep-09 06:32N 43°32' E 007°02'0 0.0
2014-Sep-09 01:32N 43°32' E 007°02'0 0.0
2014-Sep-09 00:20N 43°32' E 007°02'0 0.0
2014-Sep-08 20:32N 43°32' E 007°02'0 0.0
2014-Sep-08 19:32N 43°32' E 007°02'0 0.0
2014-Sep-08 18:20N 43°32' E 007°02'0 0.0
2014-Sep-08 17:32N 43°32' E 007°02'0 0.0
2014-Sep-08 16:26N 43°32' E 007°02'0 0.0
2014-Sep-08 15:26N 43°32' E 007°02'0 0.0
2014-Sep-08 14:20N 43°32' E 007°02'0 0.0
2014-Sep-08 13:26N 43°32' E 007°02'0 0.0
2014-Sep-08 11:32N 43°32' E 007°02'  

Dump ship's entire track history